Portada
METAR-TAF:

METAR-TAF

Aeroports :

Donegal, Irlanda

latitud: 55-02-39N, longitud: 8-20-28W, altitud: 9 m

Observació

L'informe es va fer fa 58 minuts, a les 19:00 UTC
Vent 13 kt del Nord/Nord-Est
Temperatura 8°C
Humitat 71%
Pressió 1040 hPa
Visibilitat 10 km o més
Cel cobert a una alçada de 3600 ft

METAR: EIDL 301900Z 02013KT 9999 OVC036 08/03 Q1040

Hora: 20:58 (19:58 UTC)

Pronòstic

L'informe es va fer fa 2 hores i 58 minuts, a les 17:00 UTC
Pronòstic vàlid del 30 a les 18 UTC al 31 a les 03 UTC
Vent 11 kt del Nord/Nord-Est
Visibilitat 10 km o més
Cel cobert a una alçada de 3500 ft

TAF: EIDL 301700Z 3018/3103 02011KT 9999 OVC035

Observacions i pronòstics meteorològics de més de 4000 aeroports (METAR i TAF).

Les estacions disponibles són els punts grocs i vermells al mapa.

Posi el ratolí al punt desitjat per veure el nom de l'estació.

Feu clic per veure les observacions i els pronòstics meteorològics.

Per canviar el mapa: feu clic els botons verds amb una creu de color negre per apropar; al botó verd amb un guió per allunyar la imatge; o en les fletxes verdes per a mapes adjacents.


METAR-TAF: